sensor_id;sensor_type;location;lat;lon;timestamp;temperature;humidity
12771;DHT22;6449;47.666;9.160;2023-12-20T00:01:04;3.90;99.90
12771;DHT22;6449;47.666;9.160;2023-12-20T00:05:59;3.90;99.90
12771;DHT22;6449;47.666;9.160;2023-12-20T00:10:52;3.90;99.90
12771;DHT22;6449;47.666;9.160;2023-12-20T00:15:46;4.00;99.90
12771;DHT22;6449;47.666;9.160;2023-12-20T00:20:39;4.00;99.90
12771;DHT22;6449;47.666;9.160;2023-12-20T00:25:34;4.10;99.90
12771;DHT22;6449;47.666;9.160;2023-12-20T00:30:28;4.00;99.90
12771;DHT22;6449;47.666;9.160;2023-12-20T00:35:21;4.00;99.90
12771;DHT22;6449;47.666;9.160;2023-12-20T00:40:15;4.00;99.90
12771;DHT22;6449;47.666;9.160;2023-12-20T00:45:10;4.10;99.90
12771;DHT22;6449;47.666;9.160;2023-12-20T00:50:04;4.20;99.90
12771;DHT22;6449;47.666;9.160;2023-12-20T00:55:00;4.20;99.90
12771;DHT22;6449;47.666;9.160;2023-12-20T00:59:54;4.20;99.90
12771;DHT22;6449;47.666;9.160;2023-12-20T01:04:49;4.10;99.90
12771;DHT22;6449;47.666;9.160;2023-12-20T01:09:43;4.10;99.90
12771;DHT22;6449;47.666;9.160;2023-12-20T01:14:36;4.10;99.90
12771;DHT22;6449;47.666;9.160;2023-12-20T01:19:31;4.10;99.90
12771;DHT22;6449;47.666;9.160;2023-12-20T01:24:26;4.10;99.90
12771;DHT22;6449;47.666;9.160;2023-12-20T01:29:19;4.10;99.90
12771;DHT22;6449;47.666;9.160;2023-12-20T01:34:14;4.20;99.90
12771;DHT22;6449;47.666;9.160;2023-12-20T01:39:08;4.20;99.90
12771;DHT22;6449;47.666;9.160;2023-12-20T01:44:17;4.30;99.90
12771;DHT22;6449;47.666;9.160;2023-12-20T01:49:10;4.40;99.90
12771;DHT22;6449;47.666;9.160;2023-12-20T01:54:04;4.50;99.90
12771;DHT22;6449;47.666;9.160;2023-12-20T01:58:58;4.50;99.90
12771;DHT22;6449;47.666;9.160;2023-12-20T02:03:55;4.50;99.90
12771;DHT22;6449;47.666;9.160;2023-12-20T02:08:50;4.50;99.90
12771;DHT22;6449;47.666;9.160;2023-12-20T02:13:43;4.50;99.90
12771;DHT22;6449;47.666;9.160;2023-12-20T02:18:37;4.50;99.90
12771;DHT22;6449;47.666;9.160;2023-12-20T02:23:32;4.60;99.90
12771;DHT22;6449;47.666;9.160;2023-12-20T02:28:25;4.60;99.90
12771;DHT22;6449;47.666;9.160;2023-12-20T02:33:19;4.60;99.90
12771;DHT22;6449;47.666;9.160;2023-12-20T02:38:13;4.50;99.90
12771;DHT22;6449;47.666;9.160;2023-12-20T02:43:07;4.50;99.90
12771;DHT22;6449;47.666;9.160;2023-12-20T02:48:01;4.60;99.90
12771;DHT22;6449;47.666;9.160;2023-12-20T02:52:55;4.60;99.90
12771;DHT22;6449;47.666;9.160;2023-12-20T02:57:48;4.60;99.90
12771;DHT22;6449;47.666;9.160;2023-12-20T03:02:43;4.60;99.90
12771;DHT22;6449;47.666;9.160;2023-12-20T03:07:37;4.60;99.90
12771;DHT22;6449;47.666;9.160;2023-12-20T03:12:30;4.50;99.90
12771;DHT22;6449;47.666;9.160;2023-12-20T03:17:24;4.50;99.90
12771;DHT22;6449;47.666;9.160;2023-12-20T03:22:19;4.50;99.90
12771;DHT22;6449;47.666;9.160;2023-12-20T03:27:12;4.50;99.90
12771;DHT22;6449;47.666;9.160;2023-12-20T03:32:06;4.50;99.90
12771;DHT22;6449;47.666;9.160;2023-12-20T03:37:00;4.50;99.90
12771;DHT22;6449;47.666;9.160;2023-12-20T03:41:55;4.50;99.90
12771;DHT22;6449;47.666;9.160;2023-12-20T03:46:48;4.50;99.90
12771;DHT22;6449;47.666;9.160;2023-12-20T03:51:42;4.50;99.90
12771;DHT22;6449;47.666;9.160;2023-12-20T03:56:35;4.40;99.90
12771;DHT22;6449;47.666;9.160;2023-12-20T04:01:30;4.20;99.90
12771;DHT22;6449;47.666;9.160;2023-12-20T04:06:23;4.20;99.90
12771;DHT22;6449;47.666;9.160;2023-12-20T04:11:17;4.10;99.90
12771;DHT22;6449;47.666;9.160;2023-12-20T04:16:10;4.10;99.90
12771;DHT22;6449;47.666;9.160;2023-12-20T04:21:11;4.10;99.90
12771;DHT22;6449;47.666;9.160;2023-12-20T04:27:05;4.10;99.90
12771;DHT22;6449;47.666;9.160;2023-12-20T04:43:47;4.00;99.90
12771;DHT22;6449;47.666;9.160;2023-12-20T04:49:43;4.00;99.90
12771;DHT22;6449;47.666;9.160;2023-12-20T05:05:43;3.90;99.90
12771;DHT22;6449;47.666;9.160;2023-12-20T05:10:51;4.00;99.90
12771;DHT22;6449;47.666;9.160;2023-12-20T05:16:17;4.00;99.90
12771;DHT22;6449;47.666;9.160;2023-12-20T05:21:12;4.00;99.90
12771;DHT22;6449;47.666;9.160;2023-12-20T05:26:10;4.00;99.90
12771;DHT22;6449;47.666;9.160;2023-12-20T05:31:06;4.00;99.90
12771;DHT22;6449;47.666;9.160;2023-12-20T05:36:00;4.00;99.90
12771;DHT22;6449;47.666;9.160;2023-12-20T05:40:58;4.00;99.90
12771;DHT22;6449;47.666;9.160;2023-12-20T05:45:51;4.00;99.90
12771;DHT22;6449;47.666;9.160;2023-12-20T05:50:44;4.00;99.90
12771;DHT22;6449;47.666;9.160;2023-12-20T05:55:38;4.00;99.90
12771;DHT22;6449;47.666;9.160;2023-12-20T06:00:33;4.00;99.90
12771;DHT22;6449;47.666;9.160;2023-12-20T06:05:32;4.00;99.90
12771;DHT22;6449;47.666;9.160;2023-12-20T06:10:25;4.00;99.90
12771;DHT22;6449;47.666;9.160;2023-12-20T06:15:19;4.10;99.90
12771;DHT22;6449;47.666;9.160;2023-12-20T06:20:15;4.10;99.90
12771;DHT22;6449;47.666;9.160;2023-12-20T06:25:08;4.10;99.90
12771;DHT22;6449;47.666;9.160;2023-12-20T06:30:02;4.10;99.90
12771;DHT22;6449;47.666;9.160;2023-12-20T06:34:56;4.20;99.90
12771;DHT22;6449;47.666;9.160;2023-12-20T06:39:51;4.20;99.90
12771;DHT22;6449;47.666;9.160;2023-12-20T06:44:45;4.30;99.90
12771;DHT22;6449;47.666;9.160;2023-12-20T06:49:40;4.30;99.90
12771;DHT22;6449;47.666;9.160;2023-12-20T06:54:33;4.40;99.90
12771;DHT22;6449;47.666;9.160;2023-12-20T06:59:28;4.50;99.90
12771;DHT22;6449;47.666;9.160;2023-12-20T07:04:21;4.50;99.90
12771;DHT22;6449;47.666;9.160;2023-12-20T07:09:15;4.50;99.90
12771;DHT22;6449;47.666;9.160;2023-12-20T07:14:08;4.50;99.90
12771;DHT22;6449;47.666;9.160;2023-12-20T07:19:03;4.50;99.90
12771;DHT22;6449;47.666;9.160;2023-12-20T07:23:57;4.50;99.90
12771;DHT22;6449;47.666;9.160;2023-12-20T07:28:50;4.50;99.90
12771;DHT22;6449;47.666;9.160;2023-12-20T07:33:44;4.50;99.90
12771;DHT22;6449;47.666;9.160;2023-12-20T07:38:39;4.60;99.90
12771;DHT22;6449;47.666;9.160;2023-12-20T07:43:33;4.50;99.90
12771;DHT22;6449;47.666;9.160;2023-12-20T07:48:27;4.50;99.90
12771;DHT22;6449;47.666;9.160;2023-12-20T07:53:20;4.60;99.90
12771;DHT22;6449;47.666;9.160;2023-12-20T07:58:15;4.60;99.90
12771;DHT22;6449;47.666;9.160;2023-12-20T08:03:08;4.70;99.90
12771;DHT22;6449;47.666;9.160;2023-12-20T08:08:02;4.70;99.90
12771;DHT22;6449;47.666;9.160;2023-12-20T08:12:55;4.70;99.90
12771;DHT22;6449;47.666;9.160;2023-12-20T08:17:50;4.80;99.90
12771;DHT22;6449;47.666;9.160;2023-12-20T08:22:43;4.80;99.90
12771;DHT22;6449;47.666;9.160;2023-12-20T08:27:39;4.90;99.90
12771;DHT22;6449;47.666;9.160;2023-12-20T08:32:36;5.00;99.90
12771;DHT22;6449;47.666;9.160;2023-12-20T08:37:31;5.00;99.90
12771;DHT22;6449;47.666;9.160;2023-12-20T08:42:25;4.90;99.90
12771;DHT22;6449;47.666;9.160;2023-12-20T08:47:22;5.00;99.90
12771;DHT22;6449;47.666;9.160;2023-12-20T09:33:02;5.30;99.90
12771;DHT22;6449;47.666;9.160;2023-12-20T09:37:55;5.40;99.90
12771;DHT22;6449;47.666;9.160;2023-12-20T09:42:58;5.50;99.90
12771;DHT22;6449;47.666;9.160;2023-12-20T09:47:58;5.60;99.90
12771;DHT22;6449;47.666;9.160;2023-12-20T09:52:53;5.50;99.90
12771;DHT22;6449;47.666;9.160;2023-12-20T09:57:49;5.60;99.90
12771;DHT22;6449;47.666;9.160;2023-12-20T10:02:48;5.50;99.90
12771;DHT22;6449;47.666;9.160;2023-12-20T10:07:50;5.50;99.90
12771;DHT22;6449;47.666;9.160;2023-12-20T10:13:02;5.50;99.90
12771;DHT22;6449;47.666;9.160;2023-12-20T10:17:57;5.50;99.90
12771;DHT22;6449;47.666;9.160;2023-12-20T10:22:53;5.60;99.90
12771;DHT22;6449;47.666;9.160;2023-12-20T10:27:50;5.60;99.90
12771;DHT22;6449;47.666;9.160;2023-12-20T10:53:33;6.10;99.90
12771;DHT22;6449;47.666;9.160;2023-12-20T10:58:32;6.20;99.90
12771;DHT22;6449;47.666;9.160;2023-12-20T11:03:30;6.20;99.90
12771;DHT22;6449;47.666;9.160;2023-12-20T11:08:35;6.20;99.90
12771;DHT22;6449;47.666;9.160;2023-12-20T11:34:14;6.30;99.90
12771;DHT22;6449;47.666;9.160;2023-12-20T11:39:10;6.40;99.90
12771;DHT22;6449;47.666;9.160;2023-12-20T11:44:05;6.60;99.90
12771;DHT22;6449;47.666;9.160;2023-12-20T11:49:00;6.60;99.90
12771;DHT22;6449;47.666;9.160;2023-12-20T11:53:56;6.50;99.90
12771;DHT22;6449;47.666;9.160;2023-12-20T11:58:49;6.60;99.90
12771;DHT22;6449;47.666;9.160;2023-12-20T12:03:46;6.60;99.90
12771;DHT22;6449;47.666;9.160;2023-12-20T12:08:39;6.70;99.90
12771;DHT22;6449;47.666;9.160;2023-12-20T12:13:36;6.70;99.90
12771;DHT22;6449;47.666;9.160;2023-12-20T12:18:31;6.90;99.90
12771;DHT22;6449;47.666;9.160;2023-12-20T12:23:25;6.90;99.90
12771;DHT22;6449;47.666;9.160;2023-12-20T12:28:19;6.90;99.90
12771;DHT22;6449;47.666;9.160;2023-12-20T12:53:44;6.50;99.90
12771;DHT22;6449;47.666;9.160;2023-12-20T13:34:21;6.20;99.90
12771;DHT22;6449;47.666;9.160;2023-12-20T13:39:15;6.20;99.90
12771;DHT22;6449;47.666;9.160;2023-12-20T13:44:09;6.30;99.90
12771;DHT22;6449;47.666;9.160;2023-12-20T13:49:07;6.40;99.90
12771;DHT22;6449;47.666;9.160;2023-12-20T13:54:02;6.40;99.90
12771;DHT22;6449;47.666;9.160;2023-12-20T13:58:56;6.20;99.90
12771;DHT22;6449;47.666;9.160;2023-12-20T14:03:50;6.10;99.90
12771;DHT22;6449;47.666;9.160;2023-12-20T14:08:43;5.90;99.90
12771;DHT22;6449;47.666;9.160;2023-12-20T14:34:15;5.60;99.90
12771;DHT22;6449;47.666;9.160;2023-12-20T14:39:09;5.50;99.90
12771;DHT22;6449;47.666;9.160;2023-12-20T14:44:04;5.50;99.90
12771;DHT22;6449;47.666;9.160;2023-12-20T14:48:58;5.50;99.90
12771;DHT22;6449;47.666;9.160;2023-12-20T15:04:08;5.40;99.90
12771;DHT22;6449;47.666;9.160;2023-12-20T15:19:59;5.50;99.90
12771;DHT22;6449;47.666;9.160;2023-12-20T15:25:18;5.40;99.90
12771;DHT22;6449;47.666;9.160;2023-12-20T15:35:16;5.30;99.90
12771;DHT22;6449;47.666;9.160;2023-12-20T15:40:11;5.20;99.90
12771;DHT22;6449;47.666;9.160;2023-12-20T15:45:06;5.10;99.90
12771;DHT22;6449;47.666;9.160;2023-12-20T15:50:00;4.80;99.90
12771;DHT22;6449;47.666;9.160;2023-12-20T15:54:55;4.70;99.90
12771;DHT22;6449;47.666;9.160;2023-12-20T15:59:49;4.60;99.90
12771;DHT22;6449;47.666;9.160;2023-12-20T16:04:43;4.40;99.90
12771;DHT22;6449;47.666;9.160;2023-12-20T16:09:36;4.20;99.90
12771;DHT22;6449;47.666;9.160;2023-12-20T16:14:31;4.20;99.90
12771;DHT22;6449;47.666;9.160;2023-12-20T16:19:24;4.20;99.90
12771;DHT22;6449;47.666;9.160;2023-12-20T16:24:18;4.20;99.90
12771;DHT22;6449;47.666;9.160;2023-12-20T16:29:12;4.10;99.90
12771;DHT22;6449;47.666;9.160;2023-12-20T16:34:07;4.10;99.90
12771;DHT22;6449;47.666;9.160;2023-12-20T16:39:01;4.00;99.90
12771;DHT22;6449;47.666;9.160;2023-12-20T16:43:54;3.90;99.90
12771;DHT22;6449;47.666;9.160;2023-12-20T16:48:48;3.80;99.90
12771;DHT22;6449;47.666;9.160;2023-12-20T16:53:44;3.70;99.90
12771;DHT22;6449;47.666;9.160;2023-12-20T16:58:37;3.70;99.90
12771;DHT22;6449;47.666;9.160;2023-12-20T17:03:31;3.70;99.90
12771;DHT22;6449;47.666;9.160;2023-12-20T17:25:52;3.90;99.90
12771;DHT22;6449;47.666;9.160;2023-12-20T17:31:29;3.60;99.90
12771;DHT22;6449;47.666;9.160;2023-12-20T17:36:30;3.40;99.90
12771;DHT22;6449;47.666;9.160;2023-12-20T17:47:49;3.20;99.90
12771;DHT22;6449;47.666;9.160;2023-12-20T17:53:30;3.20;99.90
12771;DHT22;6449;47.666;9.160;2023-12-20T17:58:23;3.00;99.90
12771;DHT22;6449;47.666;9.160;2023-12-20T18:03:17;3.10;99.90
12771;DHT22;6449;47.666;9.160;2023-12-20T18:08:10;3.10;99.90
12771;DHT22;6449;47.666;9.160;2023-12-20T18:13:05;3.20;99.90
12771;DHT22;6449;47.666;9.160;2023-12-20T18:17:59;3.20;99.90
12771;DHT22;6449;47.666;9.160;2023-12-20T18:22:52;3.10;99.90
12771;DHT22;6449;47.666;9.160;2023-12-20T18:27:47;3.30;99.90
12771;DHT22;6449;47.666;9.160;2023-12-20T18:32:42;3.40;99.90
12771;DHT22;6449;47.666;9.160;2023-12-20T18:37:36;3.40;99.90
12771;DHT22;6449;47.666;9.160;2023-12-20T18:42:31;3.40;99.90
12771;DHT22;6449;47.666;9.160;2023-12-20T18:47:24;3.30;99.90
12771;DHT22;6449;47.666;9.160;2023-12-20T18:52:20;3.40;99.90
12771;DHT22;6449;47.666;9.160;2023-12-20T18:57:15;3.30;99.90
12771;DHT22;6449;47.666;9.160;2023-12-20T19:02:09;3.00;99.90
12771;DHT22;6449;47.666;9.160;2023-12-20T19:07:04;2.80;99.90
12771;DHT22;6449;47.666;9.160;2023-12-20T19:11:59;2.80;99.90
12771;DHT22;6449;47.666;9.160;2023-12-20T19:16:53;2.90;99.90
12771;DHT22;6449;47.666;9.160;2023-12-20T19:21:50;3.00;99.90
12771;DHT22;6449;47.666;9.160;2023-12-20T19:26:44;3.00;99.90
12771;DHT22;6449;47.666;9.160;2023-12-20T19:31:39;3.10;99.90
12771;DHT22;6449;47.666;9.160;2023-12-20T19:36:32;3.20;99.90
12771;DHT22;6449;47.666;9.160;2023-12-20T19:41:28;3.30;99.90
12771;DHT22;6449;47.666;9.160;2023-12-20T19:46:21;3.40;99.90
12771;DHT22;6449;47.666;9.160;2023-12-20T19:51:18;3.50;99.90
12771;DHT22;6449;47.666;9.160;2023-12-20T19:56:13;3.50;99.90
12771;DHT22;6449;47.666;9.160;2023-12-20T20:01:06;3.50;99.90
12771;DHT22;6449;47.666;9.160;2023-12-20T20:06:00;3.50;99.90
12771;DHT22;6449;47.666;9.160;2023-12-20T20:10:55;3.60;99.90
12771;DHT22;6449;47.666;9.160;2023-12-20T20:15:48;3.50;99.90
12771;DHT22;6449;47.666;9.160;2023-12-20T20:20:42;3.60;99.90
12771;DHT22;6449;47.666;9.160;2023-12-20T20:25:35;3.70;99.90
12771;DHT22;6449;47.666;9.160;2023-12-20T20:30:30;3.70;99.90
12771;DHT22;6449;47.666;9.160;2023-12-20T20:35:23;3.80;99.90
12771;DHT22;6449;47.666;9.160;2023-12-20T20:40:17;3.90;99.90
12771;DHT22;6449;47.666;9.160;2023-12-20T20:45:11;3.80;99.90
12771;DHT22;6449;47.666;9.160;2023-12-20T20:50:09;3.90;99.90
12771;DHT22;6449;47.666;9.160;2023-12-20T20:55:03;3.80;99.90
12771;DHT22;6449;47.666;9.160;2023-12-20T21:00:00;3.80;99.90
12771;DHT22;6449;47.666;9.160;2023-12-20T21:04:56;3.80;99.90
12771;DHT22;6449;47.666;9.160;2023-12-20T21:09:50;3.80;99.90
12771;DHT22;6449;47.666;9.160;2023-12-20T21:14:51;3.80;99.90
12771;DHT22;6449;47.666;9.160;2023-12-20T21:19:49;3.80;99.90
12771;DHT22;6449;47.666;9.160;2023-12-20T21:24:43;3.80;99.90
12771;DHT22;6449;47.666;9.160;2023-12-20T21:34:38;3.70;99.90
12771;DHT22;6449;47.666;9.160;2023-12-20T21:39:32;3.70;99.90
12771;DHT22;6449;47.666;9.160;2023-12-20T21:44:29;3.80;99.90
12771;DHT22;6449;47.666;9.160;2023-12-20T21:49:26;3.80;99.90
12771;DHT22;6449;47.666;9.160;2023-12-20T21:54:23;3.90;99.90
12771;DHT22;6449;47.666;9.160;2023-12-20T21:59:19;3.90;99.90
12771;DHT22;6449;47.666;9.160;2023-12-20T22:04:14;3.80;99.90
12771;DHT22;6449;47.666;9.160;2023-12-20T22:09:12;3.80;99.90
12771;DHT22;6449;47.666;9.160;2023-12-20T22:14:07;3.80;99.90
12771;DHT22;6449;47.666;9.160;2023-12-20T22:19:03;3.80;99.90
12771;DHT22;6449;47.666;9.160;2023-12-20T22:23:57;3.90;99.90
12771;DHT22;6449;47.666;9.160;2023-12-20T22:28:50;3.90;99.90
12771;DHT22;6449;47.666;9.160;2023-12-20T22:33:45;3.90;99.90
12771;DHT22;6449;47.666;9.160;2023-12-20T22:38:39;3.80;99.90
12771;DHT22;6449;47.666;9.160;2023-12-20T22:43:33;3.90;99.90
12771;DHT22;6449;47.666;9.160;2023-12-20T22:48:26;4.00;99.90
12771;DHT22;6449;47.666;9.160;2023-12-20T22:53:21;3.90;99.90
12771;DHT22;6449;47.666;9.160;2023-12-20T22:58:14;4.00;99.90
12771;DHT22;6449;47.666;9.160;2023-12-20T23:03:08;4.00;99.90
12771;DHT22;6449;47.666;9.160;2023-12-20T23:08:01;4.00;99.90
12771;DHT22;6449;47.666;9.160;2023-12-20T23:12:58;4.00;99.90
12771;DHT22;6449;47.666;9.160;2023-12-20T23:17:51;4.00;99.90
12771;DHT22;6449;47.666;9.160;2023-12-20T23:22:48;4.00;99.90
12771;DHT22;6449;47.666;9.160;2023-12-20T23:27:41;4.00;99.90
12771;DHT22;6449;47.666;9.160;2023-12-20T23:32:39;4.00;99.90
12771;DHT22;6449;47.666;9.160;2023-12-20T23:37:33;4.10;99.90
12771;DHT22;6449;47.666;9.160;2023-12-20T23:42:26;4.00;99.90
12771;DHT22;6449;47.666;9.160;2023-12-20T23:47:20;4.00;99.90
12771;DHT22;6449;47.666;9.160;2023-12-20T23:52:15;4.00;99.90
12771;DHT22;6449;47.666;9.160;2023-12-20T23:57:09;4.00;99.90
